Time;durP1;ratioP1;P1;durP2;ratioP2;P2;SDS_P1;SDS_P2;PMS_P1;PMS_P2;Temp;Humidity;BMP_temperature;BMP_pressure;BME280_temperature;BME280_humidity;BME280_pressure;Samples;Min_cycle;Max_cycle;Signal;HPM_P1;HPM_P2
2022/07/03 00:01:54;;;;;;;7.40;6.70;;;;;;;21.19;100.00;94914.88;5051559;28;20238;-63
2022/07/03 00:04:20;;;;;;;10.88;7.32;;;;;;;21.07;100.00;94913.03;5051953;28;20267;-58
2022/07/03 00:06:46;;;;;;;8.32;6.82;;;;;;;21.08;100.00;94914.63;5051398;28;20295;-58
2022/07/03 00:09:12;;;;;;;7.65;7.03;;;;;;;20.95;100.00;94919.66;5033466;28;20177;-59
2022/07/03 00:11:37;;;;;;;8.07;7.28;;;;;;;20.84;100.00;94923.53;5051008;28;20194;-59
2022/07/03 00:14:04;;;;;;;8.20;7.45;;;;;;;20.84;100.00;94920.97;5051596;28;20574;-59
2022/07/03 00:16:29;;;;;;;7.55;6.70;;;;;;;20.95;100.00;94925.59;5051118;28;20254;-63
2022/07/03 00:18:55;;;;;;;11.38;7.30;;;;;;;20.98;100.00;94924.44;5051485;28;20715;-59
2022/07/03 00:21:28;;;;;;;10.20;7.32;;;;;;;20.82;100.00;94922.94;5051546;28;20213;-61
2022/07/03 00:24:04;;;;;;;7.68;6.88;;;;;;;20.86;100.00;94922.38;5052095;28;20213;-59
2022/07/03 00:26:34;;;;;;;9.43;7.70;;;;;;;20.95;100.00;94928.19;5033434;28;20212;-61
2022/07/03 00:29:01;;;;;;;8.35;7.40;;;;;;;21.01;100.00;94924.88;5051391;28;20193;-62
2022/07/03 00:31:30;;;;;;;8.02;7.32;;;;;;;20.96;100.00;94914.28;5051331;28;20194;-62
2022/07/03 00:33:58;;;;;;;8.77;7.55;;;;;;;21.09;100.00;94922.19;5051258;28;20356;-61
2022/07/03 00:36:29;;;;;;;8.85;7.95;;;;;;;21.14;100.00;94913.88;5051457;28;20197;-59
2022/07/03 00:38:55;;;;;;;8.65;7.70;;;;;;;21.16;100.00;94907.53;5051379;28;20173;-61
2022/07/03 00:41:25;;;;;;;8.38;7.57;;;;;;;21.21;100.00;94901.78;5051359;28;20217;-62
2022/07/03 00:43:51;;;;;;;8.05;7.05;;;;;;;21.12;100.00;94902.91;5051596;28;20244;-61
2022/07/03 00:46:17;;;;;;;7.72;7.03;;;;;;;21.06;100.00;94901.88;5051319;28;20194;-58
2022/07/03 00:48:46;;;;;;;7.78;6.97;;;;;;;21.02;100.00;94882.56;5051520;28;20750;-61
2022/07/03 00:51:17;;;;;;;9.43;7.43;;;;;;;21.02;100.00;94894.69;5051119;28;20178;-62
2022/07/03 00:53:46;;;;;;;8.27;7.35;;;;;;;21.03;100.00;94886.72;5051129;28;20190;-63
2022/07/03 00:56:13;;;;;;;7.78;7.00;;;;;;;20.97;100.00;94892.63;5051154;28;20170;-61
2022/07/03 00:58:40;;;;;;;8.40;7.03;;;;;;;20.96;100.00;94892.81;5051728;28;20186;-60
2022/07/03 01:01:06;;;;;;;8.52;6.90;;;;;;;20.98;100.00;94883.88;5051528;28;20205;-61
2022/07/03 01:03:38;;;;;;;7.63;6.97;;;;;;;20.93;100.00;94886.22;5051891;28;20190;-63
2022/07/03 01:06:12;;;;;;;7.30;6.65;;;;;;;21.03;100.00;94891.91;5054882;28;20169;-61
2022/07/03 01:08:50;;;;;;;9.10;7.70;;;;;;;21.02;100.00;94889.50;5055184;28;20190;-62
2022/07/03 01:11:32;;;;;;;7.30;6.20;;;;;;;20.95;100.00;94881.66;5054819;28;20197;-62
2022/07/03 01:14:29;;;;;;;7.60;6.90;;;;;;;21.02;100.00;94885.13;5055561;28;20193;-60
2022/07/03 01:17:06;;;;;;;8.23;7.05;;;;;;;21.12;100.00;94882.22;5043890;28;20218;-61
2022/07/03 01:19:47;;;;;;;9.27;6.82;;;;;;;20.96;100.00;94888.44;5054513;28;20170;-60
2022/07/03 01:22:36;;;;;;;9.27;6.88;;;;;;;20.96;100.00;94883.28;5054767;28;20201;-59
2022/07/03 01:25:13;;;;;;;7.32;6.63;;;;;;;20.76;100.00;94866.81;5036508;28;20252;-60
2022/07/03 01:28:01;;;;;;;12.25;6.57;;;;;;;20.64;100.00;94871.69;5054674;28;20209;-62
2022/07/03 01:30:31;;;;;;;9.75;6.97;;;;;;;20.82;100.00;94879.78;5054412;28;20177;-59
2022/07/03 01:33:01;;;;;;;8.93;6.60;;;;;;;20.69;100.00;94879.66;5054501;28;20201;-60
2022/07/03 01:35:33;;;;;;;8.00;6.35;;;;;;;20.88;100.00;94883.41;5054175;28;20177;-63
2022/07/03 01:38:02;;;;;;;7.22;6.53;;;;;;;20.78;100.00;94878.56;5054375;28;20292;-62
2022/07/03 01:40:28;;;;;;;11.00;6.60;;;;;;;20.73;100.00;94872.34;5054228;28;20209;-58
2022/07/03 01:42:54;;;;;;;7.30;6.28;;;;;;;20.72;100.00;94871.56;5054687;28;20705;-59
2022/07/03 01:45:21;;;;;;;6.50;5.90;;;;;;;20.73;100.00;94877.50;5054297;28;20182;-62
2022/07/03 01:47:47;;;;;;;8.27;6.43;;;;;;;20.62;100.00;94876.25;5054302;28;20213;-63
2022/07/03 01:50:14;;;;;;;7.70;6.90;;;;;;;20.73;100.00;94877.50;5053859;28;20197;-60
2022/07/03 01:52:42;;;;;;;12.30;6.70;;;;;;;20.77;100.00;94876.16;5053756;28;20202;-58
2022/07/03 01:55:12;;;;;;;7.80;6.88;;;;;;;20.62;100.00;94871.06;5053986;28;20182;-60
2022/07/03 01:57:49;;;;;;;6.72;6.13;;;;;;;20.68;100.00;94877.28;5035961;28;20201;-60
2022/07/03 02:00:20;;;;;;;7.32;6.53;;;;;;;20.63;100.00;94880.41;5053747;28;20193;-62
2022/07/03 02:02:55;;;;;;;9.80;6.53;;;;;;;20.61;100.00;94873.81;5053991;28;20206;-61
2022/07/03 02:05:29;;;;;;;7.40;6.45;;;;;;;20.69;100.00;94877.09;5053587;28;20172;-61
2022/07/03 02:08:04;;;;;;;8.38;7.22;;;;;;;20.69;100.00;94878.88;5035849;28;20210;-62
2022/07/03 02:10:34;;;;;;;7.45;6.75;;;;;;;20.58;100.00;94881.97;5053398;28;20647;-61
2022/07/03 02:13:05;;;;;;;7.10;6.43;;;;;;;20.59;100.00;94878.38;5053497;28;20213;-63
2022/07/03 02:15:35;;;;;;;7.50;6.80;;;;;;;20.63;100.00;94883.00;5034624;28;20173;-62
2022/07/03 02:18:26;;;;;;;7.18;6.22;;;;;;;20.54;100.00;94878.94;5053342;28;20267;-60
2022/07/03 02:21:18;;;;;;;8.48;6.70;;;;;;;20.44;100.00;94875.84;5053173;28;20240;-59
2022/07/03 02:24:00;;;;;;;8.80;6.25;;;;;;;20.29;100.00;94879.47;5044831;28;20197;-60
2022/07/03 02:26:32;;;;;;;7.40;6.70;;;;;;;20.49;100.00;94873.53;5053474;28;20228;-63
2022/07/03 02:29:05;;;;;;;6.55;5.95;;;;;;;20.54;100.00;94876.34;5034876;28;20231;-59
2022/07/03 02:31:40;;;;;;;6.43;5.90;;;;;;;20.50;100.00;94871.75;5053105;28;20205;-60
2022/07/03 02:34:07;;;;;;;7.93;6.60;;;;;;;20.51;100.00;94874.16;5053230;28;20164;-62
2022/07/03 02:36:35;;;;;;;7.15;6.55;;;;;;;20.58;100.00;94882.75;5053062;28;20239;-59
2022/07/03 02:39:00;;;;;;;8.60;7.43;;;;;;;20.46;100.00;94893.78;5053236;28;20194;-62
2022/07/03 02:41:49;;;;;;;6.88;6.20;;;;;;;20.44;100.00;94893.94;5052642;28;20228;-62
2022/07/03 02:44:25;;;;;;;9.15;6.93;;;;;;;20.74;100.00;94898.03;5053279;28;20178;-62
2022/07/03 02:47:25;;;;;;;7.63;6.30;;;;;;;20.85;100.00;94900.09;5053173;28;20687;-63
2022/07/03 02:50:10;;;;;;;11.52;7.45;;;;;;;20.73;100.00;94890.44;5038608;28;20205;-62
2022/07/03 02:52:40;;;;;;;8.43;6.28;;;;;;;20.65;100.00;94890.56;5052202;28;20197;-62
2022/07/03 02:55:13;;;;;;;6.85;6.05;;;;;;;20.54;100.00;94891.06;5052514;28;20267;-62
2022/07/03 02:57:40;;;;;;;6.18;5.47;;;;;;;20.51;100.00;94896.59;5053068;28;20228;-60
2022/07/03 03:00:16;;;;;;;6.90;5.95;;;;;;;20.43;100.00;94892.34;5052663;28;20213;-59
2022/07/03 03:02:52;;;;;;;7.90;5.82;;;;;;;20.33;100.00;94896.22;5052877;28;20200;-58
2022/07/03 03:05:30;;;;;;;7.43;6.28;;;;;;;20.32;100.00;94892.81;5052405;28;20173;-63
2022/07/03 03:08:07;;;;;;;7.10;6.30;;;;;;;20.23;100.00;94893.94;5034646;28;20288;-62
2022/07/03 03:10:37;;;;;;;7.72;6.20;;;;;;;20.21;100.00;94895.91;5052661;28;20212;-62
2022/07/03 03:13:08;;;;;;;9.00;6.75;;;;;;;20.22;100.00;94902.63;5052322;28;20213;-62
2022/07/03 03:15:35;;;;;;;8.25;6.53;;;;;;;20.31;100.00;94904.16;5052396;28;20185;-62
2022/07/03 03:18:12;;;;;;;8.52;6.05;;;;;;;20.34;100.00;94903.75;5052635;28;20205;-61
2022/07/03 03:20:42;;;;;;;7.82;6.90;;;;;;;20.21;100.00;94900.25;5034255;28;20256;-59
2022/07/03 03:23:24;;;;;;;8.93;6.45;;;;;;;20.31;100.00;94911.09;5052078;28;20204;-58
2022/07/03 03:25:54;;;;;;;7.47;6.68;;;;;;;20.38;100.00;94911.97;5052320;28;20173;-62
2022/07/03 03:28:20;;;;;;;7.88;6.65;;;;;;;20.37;100.00;94908.56;5052377;28;20188;-62
2022/07/03 03:30:46;;;;;;;7.53;6.55;;;;;;;20.35;100.00;94912.31;5052162;28;20311;-62
2022/07/03 03:33:12;;;;;;;9.23;6.97;;;;;;;20.42;100.00;94913.97;5052417;28;20212;-62
2022/07/03 03:35:41;;;;;;;6.78;5.90;;;;;;;20.35;100.00;94914.91;5052203;28;20223;-60
2022/07/03 03:38:06;;;;;;;7.13;6.47;;;;;;;20.53;100.00;94907.53;5034159;28;20248;-58
2022/07/03 03:40:33;;;;;;;7.40;6.57;;;;;;;20.64;100.00;94915.63;5051820;28;20683;-59
2022/07/03 03:42:59;;;;;;;8.63;6.50;;;;;;;20.66;100.00;94907.69;5052233;28;20225;-61
2022/07/03 03:45:25;;;;;;;10.43;6.47;;;;;;;20.77;100.00;94912.34;5051945;28;20177;-61
2022/07/03 03:47:50;;;;;;;9.50;7.00;;;;;;;20.63;100.00;94910.63;5052046;28;20236;-62
2022/07/03 03:50:16;;;;;;;11.18;6.28;;;;;;;20.67;100.00;94914.44;5051793;28;20289;-61
2022/07/03 03:52:42;;;;;;;8.77;6.75;;;;;;;20.65;100.00;94916.41;5052022;28;20201;-61
2022/07/03 03:55:09;;;;;;;9.40;6.68;;;;;;;20.73;100.00;94921.44;5052012;28;20177;-58
2022/07/03 03:57:35;;;;;;;7.70;6.90;;;;;;;20.67;100.00;94919.59;5052024;28;20223;-62
2022/07/03 04:00:01;;;;;;;7.57;6.57;;;;;;;20.60;100.00;94914.38;5051656;28;20671;-59
2022/07/03 04:02:26;;;;;;;7.60;6.68;;;;;;;20.65;100.00;94922.38;5051861;28;20297;-59
2022/07/03 04:04:52;;;;;;;9.60;6.13;;;;;;;20.65;100.00;94924.16;5051946;28;20721;-61
2022/07/03 04:07:17;;;;;;;8.23;7.32;;;;;;;20.64;100.00;94918.19;5034101;28;20572;-63
2022/07/03 04:09:44;;;;;;;7.25;6.60;;;;;;;20.63;100.00;94916.59;5051940;28;20178;-59
2022/07/03 04:12:10;;;;;;;8.35;6.60;;;;;;;20.58;100.00;94908.56;5051470;28;20749;-62
2022/07/03 04:14:36;;;;;;;7.60;6.68;;;;;;;20.47;100.00;94900.53;5051750;28;20166;-59
2022/07/03 04:17:01;;;;;;;8.85;7.25;;;;;;;20.41;100.00;94909.00;5051685;28;20320;-61
2022/07/03 04:19:27;;;;;;;9.10;6.90;;;;;;;20.61;100.00;94917.75;5051329;28;20174;-62
2022/07/03 04:21:52;;;;;;;7.68;6.88;;;;;;;20.69;100.00;94915.03;5051536;28;20209;-63
2022/07/03 04:24:18;;;;;;;7.28;6.57;;;;;;;20.76;100.00;94913.34;5051538;28;20593;-60
2022/07/03 04:26:44;;;;;;;9.45;6.97;;;;;;;20.84;100.00;94924.34;5051416;28;20219;-59
2022/07/03 04:29:09;;;;;;;7.97;6.28;;;;;;;20.83;100.00;94909.00;5051324;28;20178;-58
2022/07/03 04:31:34;;;;;;;7.45;6.65;;;;;;;20.84;100.00;94913.19;5051218;28;20193;-59
2022/07/03 04:34:00;;;;;;;7.45;6.63;;;;;;;20.91;100.00;94919.22;5051702;28;20600;-63
2022/07/03 04:36:25;;;;;;;8.23;6.60;;;;;;;21.01;100.00;94917.09;5033541;28;20197;-62
2022/07/03 04:38:51;;;;;;;7.97;6.72;;;;;;;20.96;100.00;94909.13;5052032;28;20178;-58
2022/07/03 04:41:17;;;;;;;7.78;6.95;;;;;;;21.09;100.00;94911.84;5055368;28;20216;-62
2022/07/03 04:43:43;;;;;;;7.95;6.25;;;;;;;21.18;100.00;94915.91;5037640;28;20224;-61
2022/07/03 04:46:08;;;;;;;8.35;7.20;;;;;;;21.12;100.00;94914.06;5037360;28;20212;-62
2022/07/03 04:48:34;;;;;;;7.45;6.70;;;;;;;20.99;100.00;94906.16;5055631;28;20290;-62
2022/07/03 04:50:59;;;;;;;7.45;6.75;;;;;;;21.22;100.00;94922.28;5054993;28;20663;-62
2022/07/03 04:53:32;;;;;;;10.70;7.18;;;;;;;21.33;100.00;94928.75;5055116;28;20668;-63
2022/07/03 04:55:58;;;;;;;7.90;6.90;;;;;;;21.41;100.00;94931.19;5054934;28;20189;-58
2022/07/03 04:58:23;;;;;;;8.10;6.70;;;;;;;21.50;100.00;94936.00;5055407;28;20240;-63
2022/07/03 05:00:49;;;;;;;8.25;6.43;;;;;;;21.59;100.00;94929.69;5054986;28;20201;-59
2022/07/03 05:03:14;;;;;;;7.13;6.40;;;;;;;21.47;100.00;94914.91;5055166;28;20292;-62
2022/07/03 05:05:40;;;;;;;10.88;6.32;;;;;;;21.60;100.00;94923.53;5054898;28;20257;-62
2022/07/03 05:08:05;;;;;;;7.43;6.65;;;;;;;21.71;99.31;94932.56;5037123;28;20216;-61
2022/07/03 05:10:31;;;;;;;8.32;6.78;;;;;;;21.73;98.74;94936.53;5054687;28;20632;-62
2022/07/03 05:12:57;;;;;;;9.40;7.10;;;;;;;21.66;97.63;94932.31;5054584;28;20698;-62
2022/07/03 05:15:23;;;;;;;11.30;7.93;;;;;;;21.48;98.94;94909.53;5054903;28;20307;-62
2022/07/03 05:17:48;;;;;;;9.20;7.78;;;;;;;21.56;99.40;94906.78;5054085;28;20564;-62
2022/07/03 05:20:29;;;;;;;14.15;8.70;;;;;;;21.33;99.45;94910.63;5054199;28;20240;-62
2022/07/03 05:22:56;;;;;;;13.43;9.68;;;;;;;21.27;100.00;94899.22;5036189;28;20243;-62
2022/07/03 05:25:22;;;;;;;12.10;8.50;;;;;;;21.61;98.95;94929.50;5036515;28;20181;-61
2022/07/03 05:27:50;;;;;;;10.57;8.68;;;;;;;21.90;97.79;94941.47;5054470;28;20632;-61
2022/07/03 05:30:17;;;;;;;11.52;7.65;;;;;;;22.00;96.44;94944.50;5054394;28;20178;-59
2022/07/03 05:32:42;;;;;;;10.30;8.35;;;;;;;22.10;95.15;94953.47;5054522;28;20286;-58
2022/07/03 05:35:08;;;;;;;9.77;7.57;;;;;;;21.87;94.56;94944.41;5054177;28;20262;-59
2022/07/03 05:37:34;;;;;;;12.23;7.80;;;;;;;21.99;96.16;94924.75;5054505;28;20267;-63
2022/07/03 05:39:59;;;;;;;12.20;10.32;;;;;;;21.92;97.60;94918.75;5054369;28;20698;-59
2022/07/03 05:42:25;;;;;;;18.77;11.50;;;;;;;21.75;100.00;94895.72;5036391;28;20690;-63
2022/07/03 05:44:50;;;;;;;15.80;9.93;;;;;;;22.08;98.88;94924.38;5054146;28;20196;-59
2022/07/03 05:47:16;;;;;;;11.52;9.73;;;;;;;22.02;100.00;94914.03;5054369;28;20251;-61
2022/07/03 05:49:41;;;;;;;15.65;12.98;;;;;;;22.16;99.73;94913.84;5036276;28;20264;-62
2022/07/03 05:52:07;;;;;;;11.85;10.35;;;;;;;22.08;99.05;94923.59;5054090;28;20205;-64
2022/07/03 05:54:32;;;;;;;12.85;11.50;;;;;;;22.10;100.00;94911.25;5053926;28;20239;-61
2022/07/03 05:56:58;;;;;;;10.35;9.32;;;;;;;22.22;100.00;94920.84;5054010;28;20197;-61
2022/07/03 05:59:23;;;;;;;13.38;9.70;;;;;;;22.47;97.84;94947.03;5054057;28;20173;-62
2022/07/03 06:01:49;;;;;;;12.85;10.50;;;;;;;22.61;95.39;94958.25;5053900;28;20245;-62
2022/07/03 06:04:14;;;;;;;12.13;10.40;;;;;;;22.37;97.67;94939.66;5053775;28;20562;-63
2022/07/03 06:06:39;;;;;;;14.43;11.13;;;;;;;22.40;97.02;94946.25;5053722;28;20194;-63
2022/07/03 06:09:05;;;;;;;11.63;9.50;;;;;;;22.41;96.38;94953.00;5052893;28;20186;-59
2022/07/03 06:11:30;;;;;;;12.15;10.32;;;;;;;22.53;96.69;94947.06;5053435;28;20572;-62
2022/07/03 06:13:56;;;;;;;14.65;11.60;;;;;;;22.88;96.72;94957.34;5035878;28;20193;-64
2022/07/03 06:16:22;;;;;;;14.23;12.73;;;;;;;22.88;97.19;94946.97;5035552;28;20749;-60
2022/07/03 06:18:48;;;;;;;11.60;10.25;;;;;;;22.85;94.18;94976.69;5054064;28;20220;-63
2022/07/03 06:21:13;;;;;;;14.13;10.48;;;;;;;23.04;92.98;94983.69;5053156;28;20244;-62
2022/07/03 06:23:45;;;;;;;11.93;10.18;;;;;;;23.24;89.13;95017.44;5053798;28;20178;-63
2022/07/03 06:26:10;;;;;;;10.57;8.75;;;;;;;23.10;88.19;95014.03;5053426;28;20265;-64
2022/07/03 06:28:36;;;;;;;11.63;9.65;;;;;;;23.20;88.10;95009.25;5053834;28;20595;-60
2022/07/03 06:31:01;;;;;;;13.95;11.25;;;;;;;23.17;89.75;94985.47;5053185;28;20235;-62
2022/07/03 06:33:27;;;;;;;11.27;9.73;;;;;;;22.94;92.75;94946.16;5035495;28;20194;-63
2022/07/03 06:35:52;;;;;;;11.07;8.85;;;;;;;23.17;90.87;94962.13;5052867;28;20191;-62
2022/07/03 06:38:17;;;;;;;10.73;8.95;;;;;;;23.24;88.79;94996.69;5053396;28;20640;-63
2022/07/03 06:40:43;;;;;;;10.15;8.13;;;;;;;23.22;94.18;94916.44;5053153;28;20228;-63
2022/07/03 06:43:08;;;;;;;11.10;9.13;;;;;;;23.30;88.86;94994.09;5053360;28;20193;-63
2022/07/03 06:45:34;;;;;;;10.57;8.93;;;;;;;23.49;88.94;94989.13;5052885;28;20199;-59
2022/07/03 06:47:59;;;;;;;10.95;8.23;;;;;;;23.53;86.75;95005.91;5035166;28;20206;-59
2022/07/03 06:50:25;;;;;;;10.07;8.95;;;;;;;23.60;88.91;94981.53;5053010;28;20575;-60
2022/07/03 06:52:50;;;;;;;10.80;8.88;;;;;;;23.71;87.71;94996.50;5052628;28;20201;-62
2022/07/03 06:55:15;;;;;;;9.50;8.43;;;;;;;23.86;88.18;94978.09;5052718;28;20562;-64
2022/07/03 06:57:41;;;;;;;9.82;8.57;;;;;;;23.76;87.59;94993.28;5052926;28;20201;-65
2022/07/03 07:00:07;;;;;;;11.50;9.00;;;;;;;24.02;85.01;95019.22;5052511;28;20205;-63
2022/07/03 07:02:33;;;;;;;12.05;9.70;;;;;;;24.07;83.56;95030.66;5052448;28;20205;-61
2022/07/03 07:04:58;;;;;;;10.68;9.20;;;;;;;24.14;84.92;95002.03;5052399;28;20219;-63
2022/07/03 07:07:24;;;;;;;14.60;9.70;;;;;;;24.17;84.76;95002.44;5052785;28;20240;-62
2022/07/03 07:09:50;;;;;;;13.75;10.10;;;;;;;24.21;85.42;94997.63;5034615;28;20181;-63
2022/07/03 07:12:16;;;;;;;9.70;8.77;;;;;;;24.39;86.27;94976.97;5052515;28;20726;-62
2022/07/03 07:14:42;;;;;;;15.45;9.98;;;;;;;24.59;81.77;95041.88;5052339;28;20174;-62
2022/07/03 07:17:07;;;;;;;10.60;9.50;;;;;;;24.55;81.14;95046.69;5051272;28;20691;-63
2022/07/03 07:19:33;;;;;;;14.40;9.43;;;;;;;24.38;83.27;95001.34;5034317;28;20662;-61
2022/07/03 07:22:00;;;;;;;12.93;9.55;;;;;;;24.41;86.13;94974.94;5033679;28;20301;-62
2022/07/03 07:24:26;;;;;;;10.30;8.35;;;;;;;24.62;83.80;94998.06;5034146;28;20182;-62
2022/07/03 07:26:52;;;;;;;10.77;9.48;;;;;;;24.87;84.70;94983.34;5051814;28;20216;-64
2022/07/03 07:29:17;;;;;;;9.85;8.93;;;;;;;25.10;82.48;95014.03;5052124;28;20166;-63
2022/07/03 07:31:43;;;;;;;17.17;10.30;;;;;;;25.42;80.98;95038.28;5052360;28;20218;-63
2022/07/03 07:34:08;;;;;;;13.65;10.20;;;;;;;25.66;78.80;95042.69;5034397;28;20173;-61
2022/07/03 07:36:34;;;;;;;14.68;10.38;;;;;;;25.68;79.96;95019.84;5051948;28;20225;-61
2022/07/03 07:39:00;;;;;;;12.65;9.95;;;;;;;25.43;76.97;95068.53;5033864;28;20231;-62
2022/07/03 07:41:25;;;;;;;11.80;10.18;;;;;;;25.37;77.78;95043.31;5051728;28;20217;-61
2022/07/03 07:43:50;;;;;;;20.92;10.63;;;;;;;25.16;80.92;94996.78;5051939;28;20170;-61
2022/07/03 07:46:16;;;;;;;13.40;10.43;;;;;;;25.15;82.28;94969.16;5051805;28;20679;-62
2022/07/03 07:48:41;;;;;;;13.73;11.23;;;;;;;25.18;81.85;94989.56;5052207;28;20558;-62
2022/07/03 07:51:07;;;;;;;12.38;10.38;;;;;;;25.39;81.16;94995.19;5033882;28;20260;-62
2022/07/03 07:53:32;;;;;;;13.27;10.00;;;;;;;25.57;81.47;94995.28;5034195;28;20721;-62
2022/07/03 07:55:58;;;;;;;17.35;9.90;;;;;;;25.79;78.54;95040.78;5051925;28;20181;-63
2022/07/03 07:58:23;;;;;;;11.23;8.77;;;;;;;25.66;76.79;95060.94;5051768;28;20280;-61
2022/07/03 08:06:18;;;;;;;13.43;11.10;;;;;;;25.80;79.67;94995.47;5051915;28;20196;-62
2022/07/03 08:08:43;;;;;;;10.32;8.88;;;;;;;25.91;77.92;95022.66;5034083;28;20194;-59
2022/07/03 08:11:09;;;;;;;9.98;8.85;;;;;;;26.25;77.45;95014.31;5050551;28;20662;-61
2022/07/03 08:13:35;;;;;;;10.82;8.35;;;;;;;26.22;75.45;95047.84;5051421;28;20196;-61
2022/07/03 08:16:01;;;;;;;9.70;8.18;;;;;;;25.95;76.40;95018.59;5038208;28;20260;-63
2022/07/03 08:18:26;;;;;;;13.10;8.52;;;;;;;26.04;75.64;95034.75;5055944;28;20251;-62
2022/07/03 08:20:51;;;;;;;8.77;7.88;;;;;;;26.34;75.58;95027.84;5055708;28;20201;-63
2022/07/03 08:23:17;;;;;;;8.75;7.68;;;;;;;26.54;74.33;95055.28;5055968;28;20697;-63
2022/07/03 08:25:43;;;;;;;8.00;7.07;;;;;;;26.57;70.80;95111.47;5055517;28;20201;-63
2022/07/03 08:28:08;;;;;;;7.90;6.95;;;;;;;26.60;68.94;95129.31;5055731;28;20194;-63
2022/07/03 08:30:40;;;;;;;8.50;6.72;;;;;;;26.66;70.57;95075.44;5055401;28;20174;-62
2022/07/03 08:33:06;;;;;;;8.43;7.28;;;;;;;26.80;73.19;95035.16;5055832;28;20673;-62
2022/07/03 08:35:31;;;;;;;8.23;7.43;;;;;;;26.87;73.88;95033.25;5055349;28;20695;-59
2022/07/03 08:37:57;;;;;;;9.32;7.22;;;;;;;26.97;72.64;95054.41;5037597;28;20205;-61
2022/07/03 08:40:23;;;;;;;10.57;8.23;;;;;;;26.73;71.61;95065.75;5055162;28;20291;-62
2022/07/03 08:42:52;;;;;;;7.75;6.95;;;;;;;27.04;70.82;95083.84;5037258;28;20204;-62
2022/07/03 08:45:19;;;;;;;7.78;6.85;;;;;;;27.20;71.33;95059.72;5054051;28;20277;-62
2022/07/03 08:47:46;;;;;;;8.32;6.47;;;;;;;27.35;72.59;95034.03;5036805;28;20202;-62
2022/07/03 08:50:13;;;;;;;14.27;6.07;;;;;;;27.54;68.45;95100.06;5055298;28;20540;-63
2022/07/03 08:52:39;;;;;;;7.78;6.43;;;;;;;27.68;69.42;95076.13;5055316;28;20209;-61
2022/07/03 08:55:06;;;;;;;13.18;6.70;;;;;;;27.70;70.47;95054.97;5054826;28;20186;-61
2022/07/03 08:57:35;;;;;;;10.70;5.80;;;;;;;27.88;67.95;95097.50;5055173;28;20202;-60
2022/07/03 09:00:03;;;;;;;6.82;6.07;;;;;;;27.85;66.94;95121.50;5054718;28;20173;-59
2022/07/03 09:02:30;;;;;;;8.18;6.32;;;;;;;28.09;66.04;95130.19;5054780;28;20202;-60
2022/07/03 09:04:57;;;;;;;11.90;7.13;;;;;;;28.27;68.78;95071.75;5054828;28;20182;-61
2022/07/03 09:07:24;;;;;;;6.18;5.45;;;;;;;28.49;64.59;95153.88;5054858;28;20231;-59
2022/07/03 09:09:51;;;;;;;7.05;6.35;;;;;;;28.58;62.02;95183.94;5054766;28;20182;-64
2022/07/03 09:12:17;;;;;;;8.30;6.03;;;;;;;28.57;63.03;95156.16;5036596;28;20261;-62
2022/07/03 09:14:43;;;;;;;7.65;6.20;;;;;;;28.75;65.33;95104.50;5054878;28;20703;-64
2022/07/03 09:17:10;;;;;;;6.15;5.55;;;;;;;28.95;62.82;95146.78;5054223;28;20209;-62
2022/07/03 09:19:47;;;;;;;6.60;6.00;;;;;;;29.12;62.89;95128.53;5053097;28;20707;-63
2022/07/03 09:22:29;;;;;;;6.40;5.80;;;;;;;29.29;60.55;95165.31;5053826;28;20209;-62
2022/07/03 09:25:07;;;;;;;12.45;6.93;;;;;;;29.36;59.30;95172.00;5053612;28;20166;-65
2022/07/03 09:27:33;;;;;;;7.00;6.40;;;;;;;29.51;57.51;95211.59;5054707;28;20213;-63
2022/07/03 09:30:10;;;;;;;7.75;5.57;;;;;;;29.40;56.90;95195.91;5054488;28;20558;-63
2022/07/03 09:32:38;;;;;;;6.07;5.40;;;;;;;29.26;56.71;95198.00;5054137;28;20209;-61
2022/07/03 09:35:26;;;;;;;9.32;6.20;;;;;;;29.30;56.46;95177.38;5036297;28;20286;-59
2022/07/03 09:38:03;;;;;;;8.38;6.35;;;;;;;29.23;57.93;95140.81;5036667;28;20210;-60
2022/07/03 09:40:51;;;;;;;6.30;5.72;;;;;;;29.55;59.31;95122.81;5053832;28;20558;-61
2022/07/03 09:43:41;;;;;;;6.10;5.50;;;;;;;29.50;53.51;95243.28;5054764;28;20193;-62
2022/07/03 09:46:06;;;;;;;7.18;6.22;;;;;;;29.57;56.29;95154.84;5053980;28;20182;-61
2022/07/03 09:48:37;;;;;;;6.38;5.25;;;;;;;29.78;57.84;95118.28;5054532;28;20189;-61
2022/07/03 09:51:13;;;;;;;7.50;6.20;;;;;;;29.95;59.06;95086.81;5036105;28;20205;-61
2022/07/03 09:53:59;;;;;;;6.47;5.85;;;;;;;29.95;55.58;95189.09;5054461;28;20667;-63
2022/07/03 09:56:32;;;;;;;6.15;4.80;;;;;;;29.82;52.06;95260.19;5053594;28;20694;-63
2022/07/03 09:59:08;;;;;;;6.10;5.22;;;;;;;29.59;54.12;95179.75;5053836;28;20162;-63
2022/07/03 10:01:39;;;;;;;5.85;4.40;;;;;;;29.61;55.10;95156.72;5053783;28;20717;-62
2022/07/03 10:04:16;;;;;;;7.00;5.03;;;;;;;29.72;55.01;95148.06;5053968;28;20531;-61
2022/07/03 10:06:53;;;;;;;7.25;5.15;;;;;;;29.87;55.65;95144.09;5053830;28;20275;-64
2022/07/03 10:09:30;;;;;;;5.75;5.30;;;;;;;30.11;54.54;95163.91;5035747;28;20184;-64
2022/07/03 10:11:57;;;;;;;6.00;5.40;;;;;;;30.31;51.28;95230.69;5035564;28;20213;-60
2022/07/03 10:14:27;;;;;;;5.28;4.13;;;;;;;30.40;47.37;95291.47;5053474;28;20170;-63
2022/07/03 10:16:55;;;;;;;5.82;4.07;;;;;;;30.59;42.88;95396.03;5053874;28;20228;-61
2022/07/03 10:19:23;;;;;;;5.97;3.85;;;;;;;30.92;41.66;95392.69;5053770;28;20260;-64
2022/07/03 10:22:08;;;;;;;5.13;3.88;;;;;;;31.21;41.53;95391.56;5053476;28;20217;-63
2022/07/03 10:24:35;;;;;;;4.85;4.03;;;;;;;31.33;40.83;95402.00;5053555;28;20178;-64
2022/07/03 10:27:01;;;;;;;5.28;4.03;;;;;;;31.22;38.03;95477.28;5053234;28;20209;-63
2022/07/03 10:29:28;;;;;;;327.05;82.13;;;;;;;31.10;39.66;95300.47;5053244;28;20717;-63
2022/07/03 10:31:54;;;;;;;24.08;7.65;;;;;;;30.67;37.27;95347.56;5053201;28;20190;-64
2022/07/03 10:34:22;;;;;;;9.25;5.47;;;;;;;30.47;36.65;95326.22;5035179;28;20192;-62
2022/07/03 10:36:53;;;;;;;31.23;11.20;;;;;;;30.41;40.40;95180.16;5051986;28;20205;-63
2022/07/03 10:39:46;;;;;;;25.67;8.52;;;;;;;30.20;37.33;95268.22;5053113;28;20200;-63
2022/07/03 10:45:09;;;;;;;14.68;5.68;;;;;;;29.88;41.81;95143.09;5052966;28;20231;-63
2022/07/03 10:47:40;;;;;;;9.82;5.20;;;;;;;29.62;43.09;95095.41;5035189;28;20209;-63
2022/07/03 10:50:20;;;;;;;5.90;4.03;;;;;;;29.76;42.75;95128.19;5052803;28;20224;-62
2022/07/03 10:52:47;;;;;;;4.32;4.03;;;;;;;29.61;44.65;95051.88;5053021;28;20212;-63
2022/07/03 10:55:14;;;;;;;5.18;4.60;;;;;;;29.55;45.28;95038.94;5052729;28;20177;-62
2022/07/03 10:57:41;;;;;;;4.60;4.20;;;;;;;29.63;43.35;95098.84;5052967;28;20225;-63
2022/07/03 11:00:17;;;;;;;3.92;3.63;;;;;;;29.74;43.27;95101.41;5052527;28;20181;-63
2022/07/03 11:02:50;;;;;;;5.32;3.63;;;;;;;30.67;43.23;95105.97;5034958;28;20201;-64
2022/07/03 11:05:21;;;;;;;7.45;4.68;;;;;;;31.22;40.64;95185.53;5052600;28;20178;-63
2022/07/03 11:07:50;;;;;;;5.53;4.03;;;;;;;31.64;38.56;95232.31;5052969;28;20197;-63
2022/07/03 11:10:16;;;;;;;5.13;4.13;;;;;;;31.61;38.82;95207.31;5052532;28;20184;-61
2022/07/03 11:13:06;;;;;;;6.35;4.55;;;;;;;31.51;39.74;95177.47;5052220;28;20220;-61
2022/07/03 11:15:50;;;;;;;7.78;4.30;;;;;;;31.35;40.45;95150.19;5052416;28;20283;-60
2022/07/03 11:18:29;;;;;;;7.55;4.72;;;;;;;31.09;39.50;95167.47;5052489;28;20671;-60
2022/07/03 11:21:01;;;;;;;6.90;4.97;;;;;;;30.73;40.49;95133.91;5052321;28;20189;-60
2022/07/03 11:23:26;;;;;;;5.90;4.28;;;;;;;30.27;40.39;95131.63;5052089;28;20193;-59
2022/07/03 11:25:59;;;;;;;4.05;3.40;;;;;;;30.05;40.18;95138.63;5052282;28;20177;-63
2022/07/03 11:28:31;;;;;;;5.03;4.55;;;;;;;29.86;42.21;95058.63;5052233;28;20216;-60
2022/07/03 11:31:13;;;;;;;8.45;4.13;;;;;;;29.81;41.88;95078.47;5052218;28;20248;-61
2022/07/03 11:33:41;;;;;;;3.90;3.60;;;;;;;30.08;43.02;95043.72;5052782;28;20265;-63
2022/07/03 11:36:09;;;;;;;5.55;3.78;;;;;;;30.66;39.35;95155.06;5052160;28;20233;-62
2022/07/03 11:38:35;;;;;;;4.32;4.00;;;;;;;31.25;41.34;95084.38;5052635;28;20193;-73
2022/07/03 11:41:02;;;;;;;6.53;4.00;;;;;;;31.69;41.63;95066.69;5051893;28;20212;-63
2022/07/03 11:43:28;;;;;;;4.32;4.00;;;;;;;32.09;39.08;95153.88;5052507;28;20185;-64
2022/07/03 11:45:53;;;;;;;7.68;5.07;;;;;;;31.59;39.32;95134.97;5051821;28;20184;-62